DTTR

El Borma Airport

El Borma, Tunisia
METAR DTTR 241600Z 03010KT 010V070 9999 FEW030 36/03 Q1013 NOSIG
Observed Flight Rules
May-24 @ 16:00 UTC (9 hours ago) Visual Flight Rules
Wind Visibility Clouds
30° at 10 knots 10,000+ meters
  • Few at 3,000' AGL
Temperatures Readings
Current 36°C / 97°F
Dewpoint 3°C / 37°F
Humidity 13%
Altimeter 29.91" Hg
Pressure 1013 hPa
Elevation 259
METAR DTTR 241600Z 03010KT 010V070 9999 FEW030 36/03 Q1013 NOSIG
Observed Flight Rules
May-24 @ 16:00 UTC
(9 hours ago)
VFR
Wind Visibility
30° at 10 knots 10,000+ meters
Clouds
  • Few at 3,000' AGL
Temperature Dewpoint
36°C / 97°F 3°C / 37°F
Humidity Altimeter Pressure
13% 29.91" Hg 1013 hPa